Pomfret, Maryland
Current Conditions -  °F | °C
As of 8:58 AM on Monday 26 Jan 2015 (Local Time) from KDAA Reporting Station
Overcast Overcast  
Wind Chill: 30°   Ceiling: 800
Heat Index: 35°   Visibility: 10mi
Dew Point: 33°   Wind: 6mph
Humidity: 92%   Direction: NA
Pressure: 29.78"   Gusts: NA
Location:  38.58°N, 77.03°W
Report Text: KDAA 261358Z AUTO VRB05KT 10SM OVC008 02/01 A2978 RMK AO2 RAE1318 SLP088 P0000 T00170005
Loading
Personal Weather Stations






























Interactive Weather Map New forecast layout! Learn more

10-Day Weather Forecast

Advertisements
Track Severe Weather on mobile